Time;durP1;ratioP1;P1;durP2;ratioP2;P2;SDS_P1;SDS_P2;PMS_P1;PMS_P2;Temp;Humidity;BMP_temperature;BMP_pressure;BME280_temperature;BME280_humidity;BME280_pressure;Samples;Min_cycle;Max_cycle;Signal;HPM_P1;HPM_P2
2022/03/07 00:01:14;;;;;;;10.30;8.88;;;0.20;99.90;;;;;;4989038;28;20109;-69
2022/03/07 00:03:40;;;;;;;12.63;8.88;;;0.10;99.90;;;;;;4991791;28;20066;-69
2022/03/07 00:06:05;;;;;;;13.13;8.55;;;0.20;99.90;;;;;;4989323;28;20490;-69
2022/03/07 00:08:31;;;;;;;16.45;9.23;;;0.10;99.90;;;;;;4973510;28;20061;-69
2022/03/07 00:10:57;;;;;;;12.93;9.40;;;0.10;99.90;;;;;;4990835;28;20090;-69
2022/03/07 00:13:23;;;;;;;12.63;9.23;;;0.20;99.90;;;;;;4992078;28;20487;-69
2022/03/07 00:15:49;;;;;;;12.00;8.65;;;0.10;99.90;;;;;;4988022;28;20110;-69
2022/03/07 00:18:15;;;;;;;14.15;8.77;;;-0.10;99.90;;;;;;4971560;28;20047;-69
2022/03/07 00:20:41;;;;;;;11.07;8.05;;;0.10;99.90;;;;;;4988927;28;20098;-69
2022/03/07 00:23:07;;;;;;;14.02;8.77;;;0.10;99.90;;;;;;4988538;28;20053;-69
2022/03/07 00:25:32;;;;;;;13.60;10.20;;;0.00;99.90;;;;;;4991396;28;20047;-69
2022/03/07 00:27:58;;;;;;;15.20;9.00;;;-0.10;99.90;;;;;;4995374;28;20069;-69
2022/03/07 00:30:24;;;;;;;15.13;9.40;;;0.00;99.90;;;;;;4987897;28;20047;-69
2022/03/07 00:32:50;;;;;;;12.68;10.23;;;0.00;99.90;;;;;;4988330;28;20077;-69
2022/03/07 00:35:16;;;;;;;14.63;10.35;;;0.00;99.90;;;;;;4991901;28;20043;-69
2022/03/07 00:37:43;;;;;;;13.05;10.95;;;0.00;99.90;;;;;;4987553;28;20051;-69
2022/03/07 00:40:10;;;;;;;14.15;10.07;;;0.00;99.90;;;;;;4989006;28;20454;-70
2022/03/07 00:42:39;;;;;;;14.10;10.18;;;0.10;99.90;;;;;;4990374;28;20054;-69
2022/03/07 00:45:06;;;;;;;11.30;8.52;;;0.10;99.90;;;;;;4986394;28;20047;-69
2022/03/07 00:47:32;;;;;;;16.52;9.90;;;-0.10;99.90;;;;;;4988683;28;20063;-69
2022/03/07 00:49:58;;;;;;;15.23;11.50;;;0.00;99.90;;;;;;4988702;28;20061;-69
2022/03/07 00:52:24;;;;;;;18.13;13.27;;;-0.20;99.90;;;;;;4991063;28;20043;-69
2022/03/07 00:54:49;;;;;;;17.92;13.23;;;-0.20;99.90;;;;;;4989639;28;20111;-70
2022/03/07 00:57:15;;;;;;;19.52;13.63;;;-0.40;99.90;;;;;;4991803;28;20043;-70
2022/03/07 00:59:41;;;;;;;17.67;13.38;;;-0.60;99.90;;;;;;4976083;28;20046;-70
2022/03/07 01:02:06;;;;;;;19.20;13.40;;;-0.60;99.90;;;;;;4987765;28;20043;-69
2022/03/07 01:04:32;;;;;;;18.80;13.38;;;-0.60;99.90;;;;;;4980783;28;20054;-69
2022/03/07 01:06:58;;;;;;;20.27;14.23;;;-0.70;99.90;;;;;;4972545;28;20102;-69
2022/03/07 01:09:23;;;;;;;20.27;15.18;;;-0.60;99.90;;;;;;4989591;28;20046;-70
2022/03/07 01:11:49;;;;;;;17.58;11.52;;;-0.50;99.90;;;;;;4990593;28;20053;-69
2022/03/07 01:14:15;;;;;;;14.30;10.73;;;-0.50;99.90;;;;;;4986224;28;20066;-69
2022/03/07 01:16:41;;;;;;;13.43;9.73;;;-0.80;99.90;;;;;;4974749;28;20117;-69
2022/03/07 01:19:06;;;;;;;13.23;8.82;;;-0.50;99.90;;;;;;4989869;28;20062;-69
2022/03/07 01:21:32;;;;;;;10.27;8.05;;;-0.80;99.90;;;;;;4988095;28;20237;-69
2022/03/07 01:23:58;;;;;;;17.58;10.02;;;-0.70;99.90;;;;;;4987223;28;20035;-69
2022/03/07 01:26:23;;;;;;;14.77;11.07;;;-0.50;99.90;;;;;;4989957;28;20089;-69
2022/03/07 01:28:49;;;;;;;15.18;11.02;;;-0.60;99.90;;;;;;4986076;28;20125;-70
2022/03/07 01:31:15;;;;;;;15.05;10.38;;;-0.50;99.90;;;;;;4986884;28;20054;-70
2022/03/07 01:33:40;;;;;;;16.30;11.85;;;-0.60;99.90;;;;;;4989428;28;20086;-70
2022/03/07 01:36:06;;;;;;;14.93;10.95;;;-0.70;99.90;;;;;;4990958;28;20059;-69
2022/03/07 01:38:32;;;;;;;14.85;11.07;;;-0.90;99.90;;;;;;4987142;28;20077;-69
2022/03/07 01:40:57;;;;;;;18.33;12.35;;;-0.80;99.90;;;;;;4987533;28;20057;-69
2022/03/07 01:43:24;;;;;;;15.15;11.50;;;-0.90;99.90;;;;;;4988968;28;20077;-69
2022/03/07 01:45:49;;;;;;;19.42;12.48;;;-1.00;99.90;;;;;;4986319;28;20047;-69
2022/03/07 01:48:15;;;;;;;17.58;11.55;;;-0.80;99.90;;;;;;4992509;28;20448;-71
2022/03/07 01:50:42;;;;;;;17.73;12.48;;;-1.00;99.90;;;;;;4990204;28;20054;-70
2022/03/07 01:53:08;;;;;;;16.42;12.13;;;-1.20;99.90;;;;;;4984820;28;20035;-70
2022/03/07 01:55:34;;;;;;;16.33;11.43;;;-1.20;99.90;;;;;;4985079;28;20050;-70
2022/03/07 01:58:00;;;;;;;14.38;11.05;;;-1.10;99.90;;;;;;4990289;28;20053;-71
2022/03/07 02:00:27;;;;;;;18.00;12.52;;;-1.20;99.90;;;;;;4988847;28;20050;-70
2022/03/07 02:02:54;;;;;;;17.23;12.00;;;-1.40;99.90;;;;;;4991427;28;20046;-70
2022/03/07 02:05:19;;;;;;;18.20;12.27;;;-1.20;99.90;;;;;;4987903;28;20137;-69
2022/03/07 02:07:45;;;;;;;18.40;12.23;;;-1.50;99.90;;;;;;4989254;28;20042;-70
2022/03/07 02:10:12;;;;;;;19.60;13.40;;;-1.50;99.90;;;;;;4987942;28;20081;-70
2022/03/07 02:12:38;;;;;;;18.27;13.63;;;-1.20;99.90;;;;;;4986897;28;20070;-70
2022/03/07 02:15:07;;;;;;;20.40;13.25;;;-1.40;99.90;;;;;;4986912;28;20070;-70
2022/03/07 02:17:33;;;;;;;20.35;13.38;;;-1.60;99.90;;;;;;4992409;28;20070;-70
2022/03/07 02:19:59;;;;;;;24.38;13.85;;;-1.50;99.90;;;;;;4985969;28;20054;-70
2022/03/07 02:22:25;;;;;;;18.10;12.70;;;-1.70;99.90;;;;;;4990155;28;20052;-69
2022/03/07 02:24:50;;;;;;;19.83;12.43;;;-1.70;99.90;;;;;;4985205;28;20050;-69
2022/03/07 02:27:18;;;;;;;19.20;12.95;;;-1.60;99.90;;;;;;4988575;28;20070;-69
2022/03/07 02:29:45;;;;;;;17.60;12.55;;;-1.50;99.90;;;;;;4986838;28;20082;-69
2022/03/07 02:32:11;;;;;;;17.08;12.63;;;-1.60;99.90;;;;;;4987657;28;20047;-69
2022/03/07 02:34:37;;;;;;;18.02;13.00;;;-1.50;99.90;;;;;;4987742;28;20049;-69
2022/03/07 02:37:04;;;;;;;17.27;12.77;;;-1.50;99.90;;;;;;4982814;28;20055;-69
2022/03/07 02:39:30;;;;;;;20.20;12.80;;;-1.30;99.90;;;;;;4990765;28;20047;-70
2022/03/07 02:41:55;;;;;;;20.67;13.40;;;-1.30;99.90;;;;;;4990236;28;20047;-69
2022/03/07 02:44:22;;;;;;;18.55;12.38;;;-1.30;99.90;;;;;;4985802;28;20081;-69
2022/03/07 02:46:48;;;;;;;17.30;12.45;;;-1.20;99.90;;;;;;4989843;28;20069;-69
2022/03/07 02:49:13;;;;;;;19.73;13.65;;;-1.50;99.90;;;;;;4988193;28;20422;-69
2022/03/07 02:51:39;;;;;;;16.95;12.32;;;-1.50;99.90;;;;;;4986532;28;20049;-69
2022/03/07 02:54:05;;;;;;;17.58;12.88;;;-1.40;99.90;;;;;;4987831;28;20558;-69
2022/03/07 02:56:31;;;;;;;17.48;12.60;;;-1.50;99.90;;;;;;4991572;28;20110;-69
2022/03/07 02:58:57;;;;;;;19.15;12.02;;;-1.60;99.90;;;;;;4971387;28;20050;-70
2022/03/07 03:01:23;;;;;;;19.10;11.88;;;-1.70;99.90;;;;;;4987452;28;20050;-70
2022/03/07 03:03:48;;;;;;;19.25;12.23;;;-1.70;99.90;;;;;;4986693;28;20074;-70
2022/03/07 03:06:14;;;;;;;19.83;13.07;;;-1.70;99.90;;;;;;4991219;28;20038;-70
2022/03/07 03:08:40;;;;;;;18.95;12.88;;;-1.50;99.90;;;;;;4988944;28;20133;-70
2022/03/07 03:11:06;;;;;;;17.60;12.85;;;-1.60;99.90;;;;;;4990004;28;20066;-70
2022/03/07 03:13:31;;;;;;;19.38;13.35;;;-1.50;99.90;;;;;;4988719;28;20043;-70
2022/03/07 03:15:57;;;;;;;15.85;11.52;;;-1.50;99.90;;;;;;4992434;28;20089;-70
2022/03/07 03:18:23;;;;;;;14.75;11.60;;;-1.60;99.90;;;;;;4987111;28;20050;-70
2022/03/07 03:20:51;;;;;;;16.98;11.73;;;-1.50;99.90;;;;;;4988256;28;20057;-70
2022/03/07 03:23:18;;;;;;;18.05;13.23;;;-1.40;99.90;;;;;;4987451;28;20039;-70
2022/03/07 03:25:43;;;;;;;18.30;12.23;;;-1.80;99.90;;;;;;4990182;28;20039;-70
2022/03/07 03:28:09;;;;;;;16.65;10.98;;;-1.70;99.90;;;;;;4983618;28;20089;-70
2022/03/07 03:30:35;;;;;;;17.85;12.00;;;-1.70;99.90;;;;;;4985018;28;20046;-70
2022/03/07 03:33:01;;;;;;;17.75;12.40;;;-1.70;99.90;;;;;;4987999;28;20471;-70
2022/03/07 03:35:27;;;;;;;17.55;12.02;;;-1.60;99.90;;;;;;4991599;28;20042;-70
2022/03/07 03:37:53;;;;;;;19.90;12.02;;;-1.60;99.90;;;;;;4990452;28;20524;-70
2022/03/07 03:40:19;;;;;;;16.02;12.00;;;-1.90;99.90;;;;;;4989732;28;20066;-70
2022/03/07 03:42:45;;;;;;;17.42;12.27;;;-2.00;99.90;;;;;;4989190;28;20085;-70
2022/03/07 03:45:12;;;;;;;18.65;13.05;;;-1.80;99.90;;;;;;4989335;28;20062;-70
2022/03/07 03:47:39;;;;;;;20.33;12.60;;;-1.90;99.90;;;;;;4991117;28;20133;-70
2022/03/07 03:50:09;;;;;;;19.60;13.07;;;-1.70;99.90;;;;;;4988735;28;20051;-70
2022/03/07 03:52:35;;;;;;;15.48;11.82;;;-1.80;99.90;;;;;;4992461;28;20069;-69
2022/03/07 03:55:02;;;;;;;18.10;12.50;;;-2.00;99.90;;;;;;4991802;28;20050;-69
2022/03/07 03:57:29;;;;;;;15.20;11.98;;;-1.90;99.90;;;;;;4991793;28;20497;-69
2022/03/07 03:59:56;;;;;;;19.25;12.75;;;-2.00;99.90;;;;;;4990108;28;20054;-69
2022/03/07 04:02:22;;;;;;;18.50;12.13;;;-1.90;99.90;;;;;;4989332;28;20043;-69
2022/03/07 04:04:47;;;;;;;16.63;12.68;;;-2.10;99.90;;;;;;4988198;28;20053;-69
2022/03/07 04:07:13;;;;;;;16.67;12.25;;;-2.20;99.90;;;;;;4991461;28;20456;-69
2022/03/07 04:09:39;;;;;;;17.20;11.32;;;-1.90;99.90;;;;;;4989495;28;20042;-69
2022/03/07 04:12:05;;;;;;;18.55;12.00;;;-1.90;99.90;;;;;;4993376;28;20068;-69
2022/03/07 04:14:31;;;;;;;18.90;11.98;;;-2.10;99.90;;;;;;4990312;28;20050;-69
2022/03/07 04:16:57;;;;;;;20.75;12.30;;;-2.00;99.90;;;;;;4991126;28;20055;-69
2022/03/07 04:19:23;;;;;;;17.20;11.73;;;-1.80;99.90;;;;;;4987758;28;20784;-69
2022/03/07 04:21:48;;;;;;;19.83;12.25;;;-1.50;99.90;;;;;;4994501;28;20046;-69
2022/03/07 04:24:15;;;;;;;14.45;11.07;;;-1.40;99.90;;;;;;4987442;28;20082;-69
2022/03/07 04:26:42;;;;;;;16.65;11.70;;;-1.40;99.90;;;;;;4990390;28;20486;-69
2022/03/07 04:29:09;;;;;;;17.13;10.77;;;-1.60;99.90;;;;;;4986467;28;20150;-69
2022/03/07 04:31:43;;;;;;;17.90;11.15;;;-1.60;99.90;;;;;;4989415;28;20050;-69
2022/03/07 04:34:12;;;;;;;15.82;10.75;;;-1.60;99.90;;;;;;4987576;28;20101;-69
2022/03/07 04:36:38;;;;;;;14.75;10.23;;;-1.40;99.90;;;;;;4991310;28;20061;-69
2022/03/07 04:39:05;;;;;;;15.00;10.68;;;-1.60;99.90;;;;;;4986653;28;20110;-69
2022/03/07 04:41:31;;;;;;;15.90;10.45;;;-1.60;99.90;;;;;;4992004;28;20411;-69
2022/03/07 04:43:57;;;;;;;14.20;9.20;;;-1.60;99.90;;;;;;4987297;28;20043;-69
2022/03/07 04:46:23;;;;;;;16.60;10.52;;;-1.70;99.90;;;;;;4986605;28;20073;-69
2022/03/07 04:48:49;;;;;;;17.02;11.75;;;-1.80;99.90;;;;;;4986816;28;20047;-69
2022/03/07 04:51:15;;;;;;;14.00;9.77;;;-1.90;99.90;;;;;;4991706;28;20041;-69
2022/03/07 04:53:41;;;;;;;15.57;9.43;;;-1.80;99.90;;;;;;4987135;28;20107;-69
2022/03/07 04:56:07;;;;;;;20.70;12.13;;;-2.00;99.90;;;;;;4989486;28;20047;-69
2022/03/07 04:58:33;;;;;;;29.33;13.48;;;-1.80;99.90;;;;;;4987657;28;20062;-69
2022/03/07 05:00:59;;;;;;;36.88;14.40;;;-1.90;99.90;;;;;;4991260;28;20050;-69
2022/03/07 05:03:25;;;;;;;27.60;13.60;;;-2.00;99.90;;;;;;4990660;28;20043;-69
2022/03/07 05:05:51;;;;;;;22.13;12.93;;;-2.00;99.90;;;;;;4995552;28;20120;-69
2022/03/07 05:08:17;;;;;;;29.38;14.32;;;-2.00;99.90;;;;;;4985912;28;20105;-69
2022/03/07 05:10:43;;;;;;;23.60;14.05;;;-2.10;99.90;;;;;;4988692;28;20050;-69
2022/03/07 05:13:09;;;;;;;23.48;13.73;;;-1.90;99.90;;;;;;4990119;28;20129;-69
2022/03/07 05:15:35;;;;;;;24.48;14.32;;;-1.90;99.90;;;;;;4988742;28;20050;-70
2022/03/07 05:18:00;;;;;;;25.10;14.35;;;-1.80;99.90;;;;;;4989288;28;20111;-70
2022/03/07 05:20:26;;;;;;;24.33;13.70;;;-1.80;99.90;;;;;;4987049;28;20134;-70
2022/03/07 05:22:53;;;;;;;24.65;15.13;;;-1.70;99.90;;;;;;4987745;28;20047;-70
2022/03/07 05:25:20;;;;;;;25.75;15.20;;;-1.90;99.90;;;;;;4989050;28;20052;-70
2022/03/07 05:27:46;;;;;;;27.70;15.13;;;-1.80;99.90;;;;;;4983266;28;20066;-70
2022/03/07 05:30:19;;;;;;;23.25;13.07;;;-1.90;99.90;;;;;;4990216;28;20525;-70
2022/03/07 05:32:47;;;;;;;26.30;16.10;;;-1.90;99.90;;;;;;4955402;28;20058;-70
2022/03/07 05:35:14;;;;;;;23.38;14.77;;;-1.70;99.90;;;;;;4981963;28;20080;-70
2022/03/07 05:37:41;;;;;;;19.55;12.23;;;-1.60;99.90;;;;;;4985460;28;20106;-70
2022/03/07 05:40:08;;;;;;;21.38;13.80;;;-1.70;99.90;;;;;;4991415;28;20043;-72
2022/03/07 05:42:35;;;;;;;18.73;12.45;;;-1.70;99.90;;;;;;4987815;28;20084;-70
2022/03/07 05:45:01;;;;;;;21.83;12.82;;;-1.70;99.90;;;;;;4963032;28;20053;-75
2022/03/07 05:47:27;;;;;;;21.52;13.35;;;-1.50;99.90;;;;;;4951712;28;20061;-69
2022/03/07 05:49:52;;;;;;;21.13;12.98;;;-1.90;99.90;;;;;;4968626;28;20038;-72
2022/03/07 05:52:18;;;;;;;18.95;12.82;;;-2.00;99.90;;;;;;4970528;28;20111;-71
2022/03/07 05:54:44;;;;;;;18.60;12.32;;;-1.90;99.90;;;;;;4975792;28;20049;-71
2022/03/07 05:57:11;;;;;;;17.80;11.32;;;-1.90;99.90;;;;;;4992763;28;20128;-70
2022/03/07 05:59:36;;;;;;;18.70;12.25;;;-1.70;99.90;;;;;;4990694;28;20429;-70
2022/03/07 06:02:03;;;;;;;18.33;12.13;;;-1.80;99.90;;;;;;5000282;28;20049;-70
2022/03/07 06:04:28;;;;;;;20.13;12.15;;;-1.80;99.90;;;;;;4995784;28;20034;-72
2022/03/07 06:06:54;;;;;;;18.92;12.30;;;-1.70;99.90;;;;;;4985498;28;20153;-71
2022/03/07 06:09:20;;;;;;;17.95;12.25;;;-1.80;99.90;;;;;;4990900;28;20062;-72
2022/03/07 06:11:45;;;;;;;23.48;12.43;;;-1.50;99.90;;;;;;4982083;28;20054;-72
2022/03/07 06:14:11;;;;;;;17.45;11.75;;;-1.40;99.90;;;;;;4985218;28;20070;-73
2022/03/07 06:16:37;;;;;;;17.92;12.07;;;-1.60;99.90;;;;;;4980654;28;20057;-70
2022/03/07 06:19:03;;;;;;;16.27;11.45;;;-1.40;99.90;;;;;;4987487;28;20035;-68
2022/03/07 06:21:29;;;;;;;19.17;12.55;;;-1.60;99.90;;;;;;4979519;28;20062;-69
2022/03/07 06:23:54;;;;;;;19.75;13.88;;;-1.50;99.90;;;;;;4982536;28;20468;-69
2022/03/07 06:26:20;;;;;;;18.33;12.15;;;-1.60;99.90;;;;;;4979189;28;20138;-70
2022/03/07 06:28:46;;;;;;;23.80;14.15;;;-1.50;99.90;;;;;;4984306;28;20043;-70
2022/03/07 06:31:12;;;;;;;22.38;14.25;;;-1.60;99.90;;;;;;4984121;28;20054;-70
2022/03/07 06:33:37;;;;;;;21.08;13.45;;;-1.40;99.90;;;;;;4968538;28;20050;-70
2022/03/07 06:36:06;;;;;;;19.77;12.80;;;-1.50;99.90;;;;;;4979927;28;20129;-69
2022/03/07 06:38:33;;;;;;;21.23;12.88;;;-1.60;99.90;;;;;;4984209;28;20046;-69
2022/03/07 06:40:58;;;;;;;24.60;14.45;;;-1.30;99.90;;;;;;4959876;28;20144;-69
2022/03/07 06:43:24;;;;;;;20.15;13.13;;;-1.30;99.90;;;;;;4985672;28;20451;-69
2022/03/07 06:45:50;;;;;;;21.45;13.73;;;-1.40;99.90;;;;;;4960812;28;20046;-69
2022/03/07 06:48:16;;;;;;;22.33;15.20;;;-1.50;99.90;;;;;;4991159;28;20082;-69
2022/03/07 06:50:42;;;;;;;21.15;14.23;;;-1.50;99.90;;;;;;4981649;28;20054;-69
2022/03/07 06:53:07;;;;;;;21.90;14.48;;;-1.40;99.90;;;;;;4984360;28;20394;-69
2022/03/07 06:55:33;;;;;;;22.00;15.32;;;-1.30;99.90;;;;;;4980189;28;20054;-69
2022/03/07 06:57:59;;;;;;;20.13;13.63;;;-1.30;99.90;;;;;;4983487;28;20047;-70
2022/03/07 07:00:24;;;;;;;21.15;13.82;;;-1.20;99.90;;;;;;4977582;28;20058;-69
2022/03/07 07:02:50;;;;;;;21.00;13.68;;;-1.30;99.90;;;;;;4983407;28;20050;-71
2022/03/07 07:05:16;;;;;;;23.50;15.00;;;-1.40;99.90;;;;;;4973838;28;20106;-70
2022/03/07 07:07:44;;;;;;;24.83;16.63;;;-1.40;99.90;;;;;;4982410;28;20042;-70
2022/03/07 07:10:10;;;;;;;30.13;18.88;;;-1.30;99.90;;;;;;4973831;28;20078;-71
2022/03/07 07:12:37;;;;;;;33.28;19.77;;;-1.10;99.90;;;;;;4976128;28;20054;-71
2022/03/07 07:15:04;;;;;;;30.08;19.55;;;-0.90;99.90;;;;;;4978442;28;20080;-71
2022/03/07 07:17:30;;;;;;;32.67;19.58;;;-0.90;99.90;;;;;;4940532;28;20066;-71
2022/03/07 07:19:56;;;;;;;31.17;19.98;;;-0.80;99.90;;;;;;4982381;28;20038;-71
2022/03/07 07:22:22;;;;;;;32.85;19.02;;;-0.90;99.90;;;;;;4940182;28;20062;-71
2022/03/07 07:24:47;;;;;;;34.10;20.27;;;-0.80;99.90;;;;;;4982825;28;20385;-72
2022/03/07 07:27:13;;;;;;;34.30;20.75;;;-0.60;99.90;;;;;;4968547;28;20062;-71
2022/03/07 07:29:39;;;;;;;30.77;20.33;;;-0.50;99.90;;;;;;4977676;28;20047;-71
2022/03/07 07:32:05;;;;;;;30.02;20.27;;;-0.60;99.90;;;;;;4971348;28;20117;-71
2022/03/07 07:34:31;;;;;;;34.35;20.17;;;-0.40;99.90;;;;;;4960143;28;20042;-71
2022/03/07 07:36:57;;;;;;;33.92;20.50;;;-0.20;99.90;;;;;;4970315;28;20050;-71
2022/03/07 07:39:22;;;;;;;32.83;19.58;;;-0.40;99.90;;;;;;4983256;28;20051;-70
2022/03/07 07:41:48;;;;;;;30.88;19.88;;;0.00;99.90;;;;;;4976342;28;20054;-70
2022/03/07 07:44:16;;;;;;;29.95;19.73;;;-0.30;99.90;;;;;;4981314;28;20058;-71
2022/03/07 07:46:42;;;;;;;34.47;21.23;;;-0.10;99.90;;;;;;4985417;28;20050;-70
2022/03/07 07:49:08;;;;;;;39.88;23.05;;;-0.10;99.90;;;;;;4979495;28;20113;-70
2022/03/07 07:51:34;;;;;;;39.22;24.17;;;0.10;99.90;;;;;;4954938;28;20062;-70
2022/03/07 07:54:00;;;;;;;45.83;27.08;;;0.20;99.90;;;;;;4959935;28;20055;-69
2022/03/07 07:56:26;;;;;;;45.03;26.48;;;0.40;99.90;;;;;;4971259;28;20357;-68
2022/03/07 07:58:52;;;;;;;50.63;29.42;;;0.70;99.90;;;;;;4982113;28;20043;-69
2022/03/07 08:01:18;;;;;;;41.10;24.95;;;0.70;99.90;;;;;;4969566;28;20146;-70
2022/03/07 08:03:44;;;;;;;45.95;27.50;;;0.80;99.90;;;;;;4985485;28;20081;-70
2022/03/07 08:06:09;;;;;;;48.28;27.55;;;0.60;99.90;;;;;;4974043;28;20054;-70
2022/03/07 08:08:35;;;;;;;50.80;27.95;;;1.00;99.90;;;;;;4979205;28;20165;-72
2022/03/07 08:11:02;;;;;;;43.15;26.45;;;1.00;99.90;;;;;;4976989;28;20050;-73
2022/03/07 08:13:27;;;;;;;44.67;25.23;;;1.20;99.90;;;;;;4961135;28;20050;-74
2022/03/07 08:15:53;;;;;;;42.33;24.58;;;1.40;99.90;;;;;;4982474;28;20501;-73
2022/03/07 08:18:19;;;;;;;40.63;24.02;;;1.40;99.90;;;;;;4963348;28;20089;-73
2022/03/07 08:20:45;;;;;;;42.72;24.70;;;1.20;99.90;;;;;;4960316;28;20131;-73
2022/03/07 08:23:11;;;;;;;48.00;24.33;;;1.40;99.90;;;;;;4982428;28;20066;-73
2022/03/07 08:25:36;;;;;;;44.05;24.77;;;1.50;99.90;;;;;;4974930;28;20106;-72
2022/03/07 08:28:03;;;;;;;38.40;23.10;;;1.80;99.90;;;;;;4981307;28;20054;-72
2022/03/07 08:30:29;;;;;;;40.47;23.90;;;1.80;99.90;;;;;;4975189;28;20078;-72
2022/03/07 08:32:56;;;;;;;41.40;21.75;;;1.90;99.90;;;;;;4975975;28;20578;-72
2022/03/07 08:35:22;;;;;;;37.90;20.98;;;2.40;99.90;;;;;;4973789;28;20053;-73
2022/03/07 08:37:50;;;;;;;31.48;20.42;;;2.60;99.90;;;;;;4983374;28;20077;-72
2022/03/07 08:40:18;;;;;;;32.03;20.00;;;2.70;99.90;;;;;;4985300;28;20050;-72
2022/03/07 08:42:44;;;;;;;31.67;19.08;;;2.80;99.90;;;;;;4970441;28;20059;-72
2022/03/07 08:45:10;;;;;;;33.55;21.33;;;2.70;99.90;;;;;;4967198;28;20748;-72
2022/03/07 08:47:38;;;;;;;34.47;18.30;;;2.90;99.90;;;;;;4971839;28;20046;-72
2022/03/07 08:50:06;;;;;;;27.80;16.17;;;3.20;99.90;;;;;;4979893;28;20070;-71
2022/03/07 08:52:32;;;;;;;23.70;14.73;;;2.90;99.90;;;;;;4984473;28;20146;-72
2022/03/07 08:54:57;;;;;;;15.20;10.05;;;3.40;99.90;;;;;;4979522;28;20074;-72
2022/03/07 08:57:23;;;;;;;15.82;10.38;;;3.20;99.90;;;;;;4972092;28;20050;-73
2022/03/07 08:59:49;;;;;;;16.17;11.27;;;3.20;99.90;;;;;;4985035;28;20084;-73
2022/03/07 09:02:15;;;;;;;15.75;10.02;;;3.30;99.90;;;;;;4971843;28;20047;-72
2022/03/07 09:04:40;;;;;;;17.25;9.43;;;3.30;99.90;;;;;;4983034;28;20378;-72
2022/03/07 09:07:07;;;;;;;13.02;9.38;;;3.30;99.90;;;;;;4963873;28;20131;-71
2022/03/07 09:09:33;;;;;;;16.23;10.35;;;3.40;99.90;;;;;;4982960;28;20495;-71
2022/03/07 09:12:00;;;;;;;16.00;9.38;;;3.70;99.90;;;;;;4974268;28;20046;-71
2022/03/07 09:14:26;;;;;;;16.13;8.60;;;3.60;99.90;;;;;;4965251;28;20059;-73
2022/03/07 09:16:52;;;;;;;15.40;8.02;;;3.60;99.90;;;;;;4956010;28;20100;-73
2022/03/07 09:19:17;;;;;;;13.20;8.68;;;3.60;99.90;;;;;;4983659;28;20522;-72
2022/03/07 09:21:43;;;;;;;11.55;7.82;;;3.70;99.90;;;;;;4973640;28;20350;-73
2022/03/07 09:24:09;;;;;;;9.35;5.88;;;3.80;99.90;;;;;;4984766;28;20046;-72
2022/03/07 09:26:35;;;;;;;10.48;6.22;;;4.20;99.90;;;;;;4973769;28;20050;-72
2022/03/07 09:29:00;;;;;;;12.15;5.97;;;4.20;99.90;;;;;;4982438;28;20038;-74
2022/03/07 09:31:26;;;;;;;10.63;3.97;;;4.30;99.90;;;;;;4953548;28;20051;-72
2022/03/07 09:33:52;;;;;;;8.05;3.17;;;4.40;99.90;;;;;;4967268;28;20051;-72
2022/03/07 09:36:18;;;;;;;5.85;4.10;;;4.30;99.90;;;;;;4946676;28;20058;-72
2022/03/07 09:38:44;;;;;;;8.63;4.03;;;4.60;99.90;;;;;;4989370;28;20651;-72
2022/03/07 09:41:10;;;;;;;9.25;4.22;;;4.70;99.90;;;;;;4979554;28;20046;-73
2022/03/07 09:43:37;;;;;;;10.70;4.85;;;4.80;99.90;;;;;;4983237;28;20047;-72
2022/03/07 09:46:03;;;;;;;10.10;4.93;;;4.80;99.90;;;;;;4977304;28;20117;-73
2022/03/07 09:48:29;;;;;;;12.90;5.40;;;4.90;99.90;;;;;;4970821;28;20042;-73
2022/03/07 09:50:56;;;;;;;7.45;4.80;;;4.90;99.90;;;;;;4978006;28;20104;-72
2022/03/07 09:53:22;;;;;;;9.05;5.57;;;5.00;99.90;;;;;;4980128;28;20122;-73
2022/03/07 09:55:48;;;;;;;9.88;6.13;;;5.00;99.90;;;;;;4940303;28;20051;-73
2022/03/07 09:58:15;;;;;;;14.85;6.35;;;5.20;99.90;;;;;;4976406;28;20043;-73
2022/03/07 10:00:42;;;;;;;12.20;7.15;;;5.20;99.90;;;;;;4972171;28;20054;-72
2022/03/07 10:03:10;;;;;;;13.35;6.32;;;5.20;99.90;;;;;;4981161;28;20047;-72
2022/03/07 10:05:39;;;;;;;11.70;6.40;;;5.60;99.90;;;;;;4972409;28;20038;-71
2022/03/07 10:08:06;;;;;;;10.38;5.25;;;5.60;99.90;;;;;;4972380;28;20050;-71
2022/03/07 10:10:41;;;;;;;13.60;5.90;;;5.50;99.90;;;;;;4975876;28;20113;-71
2022/03/07 10:13:09;;;;;;;12.85;5.72;;;5.60;99.90;;;;;;4958233;28;20907;-72
2022/03/07 10:15:36;;;;;;;21.25;6.60;;;5.40;99.90;;;;;;4980302;28;20165;-72
2022/03/07 10:18:02;;;;;;;13.98;6.93;;;5.40;99.90;;;;;;4967868;28;20077;-73
2022/03/07 10:20:29;;;;;;;11.32;6.20;;;5.50;99.90;;;;;;4978937;28;20440;-73
2022/03/07 10:22:57;;;;;;;9.35;5.28;;;5.70;99.90;;;;;;4988955;28;20053;-72
2022/03/07 10:25:24;;;;;;;8.82;5.40;;;5.80;99.90;;;;;;4967389;28;20447;-73
2022/03/07 10:27:51;;;;;;;7.30;5.43;;;6.20;99.90;;;;;;4969537;28;20453;-72
2022/03/07 10:30:33;;;;;;;8.93;5.43;;;6.30;99.90;;;;;;4960860;28;20054;-72
2022/03/07 10:33:05;;;;;;;11.10;5.68;;;6.50;99.90;;;;;;4956876;28;20128;-72
2022/03/07 10:35:36;;;;;;;12.07;6.18;;;6.70;99.90;;;;;;4979612;28;20043;-72
2022/03/07 10:38:08;;;;;;;9.50;6.90;;;6.80;99.90;;;;;;4974823;28;20046;-72
2022/03/07 10:40:39;;;;;;;10.80;6.88;;;7.00;99.90;;;;;;4983450;28;20046;-73
2022/03/07 10:43:05;;;;;;;8.88;6.25;;;7.00;99.90;;;;;;4971212;28;20070;-73
2022/03/07 10:45:42;;;;;;;9.68;6.30;;;7.00;99.90;;;;;;4977288;28;20066;-72
2022/03/07 10:48:08;;;;;;;11.38;7.05;;;7.00;99.90;;;;;;4971538;28;20046;-73
2022/03/07 10:50:34;;;;;;;10.18;6.18;;;7.10;99.90;;;;;;4978830;28;20061;-71
2022/03/07 10:53:06;;;;;;;8.20;5.50;;;7.10;99.90;;;;;;4968734;28;20153;-71
2022/03/07 10:55:34;;;;;;;6.05;5.10;;;7.10;99.90;;;;;;4978511;28;20590;-72
2022/03/07 10:58:07;;;;;;;8.18;6.00;;;7.30;99.90;;;;;;4976886;28;20049;-71
2022/03/07 11:00:33;;;;;;;10.02;5.20;;;7.30;99.90;;;;;;4980351;28;20043;-71
2022/03/07 11:03:00;;;;;;;11.18;5.25;;;7.50;99.90;;;;;;4969354;28;20072;-72
2022/03/07 11:05:26;;;;;;;10.15;5.00;;;7.40;99.90;;;;;;4978450;28;20074;-71
2022/03/07 11:07:52;;;;;;;8.80;5.40;;;7.20;99.90;;;;;;4969482;28;20112;-72
2022/03/07 11:10:18;;;;;;;8.07;5.28;;;7.10;99.90;;;;;;4977525;28;20061;-71
2022/03/07 11:12:45;;;;;;;9.30;4.45;;;7.00;99.90;;;;;;4976064;28;20081;-72
2022/03/07 11:15:14;;;;;;;5.78;4.20;;;6.90;99.90;;;;;;4984553;28;20054;-72
2022/03/07 11:17:42;;;;;;;7.60;4.77;;;7.00;99.90;;;;;;4974832;28;20058;-72
2022/03/07 11:20:10;;;;;;;7.78;4.20;;;7.10;99.90;;;;;;4977294;28;20058;-72
2022/03/07 11:22:36;;;;;;;6.88;4.32;;;7.30;99.90;;;;;;4938219;28;20046;-72
2022/03/07 11:25:05;;;;;;;6.82;4.47;;;7.30;99.90;;;;;;4974270;28;20102;-72
2022/03/07 11:27:31;;;;;;;9.60;5.00;;;7.20;99.90;;;;;;4969652;28;20086;-72
2022/03/07 11:29:57;;;;;;;8.73;4.30;;;7.30;99.90;;;;;;4975890;28;20042;-72
2022/03/07 11:32:22;;;;;;;11.23;4.72;;;7.30;99.90;;;;;;4973335;28;20400;-71
2022/03/07 11:34:57;;;;;;;4.15;2.70;;;7.30;99.90;;;;;;4972311;28;20517;-71
2022/03/07 11:37:27;;;;;;;5.07;3.38;;;7.50;99.90;;;;;;4973294;28;20330;-71
2022/03/07 11:39:56;;;;;;;6.25;3.40;;;7.60;99.90;;;;;;4979557;28;20059;-71
2022/03/07 11:42:22;;;;;;;3.85;3.08;;;7.70;99.90;;;;;;4969670;28;20046;-71
2022/03/07 11:44:48;;;;;;;5.57;2.80;;;7.80;99.90;;;;;;4976323;28;20089;-69
2022/03/07 11:47:18;;;;;;;5.13;2.90;;;7.90;99.90;;;;;;4981112;28;20054;-71
2022/03/07 11:49:45;;;;;;;4.77;2.63;;;7.90;99.90;;;;;;4983260;28;20344;-70
2022/03/07 11:52:22;;;;;;;4.97;2.90;;;8.00;99.90;;;;;;4974143;28;20368;-71
2022/03/07 11:54:59;;;;;;;4.20;2.47;;;8.10;99.90;;;;;;4961241;28;20105;-71
2022/03/07 11:57:35;;;;;;;5.75;3.20;;;8.10;99.90;;;;;;4978015;28;20117;-72
2022/03/07 12:00:22;;;;;;;4.03;1.80;;;8.20;99.90;;;;;;4974719;28;20042;-73
2022/03/07 12:02:51;;;;;;;4.63;2.80;;;8.30;99.90;;;;;;4972768;28;20057;-72
2022/03/07 12:05:32;;;;;;;5.60;2.40;;;8.50;99.90;;;;;;4982608;28;20039;-72
2022/03/07 12:08:14;;;;;;;4.70;2.63;;;8.50;99.90;;;;;;4978726;28;20061;-72
2022/03/07 12:10:59;;;;;;;4.60;2.80;;;8.60;99.90;;;;;;4981806;28;20465;-74
2022/03/07 12:13:26;;;;;;;5.43;3.50;;;8.70;99.90;;;;;;4971268;28;20054;-73
2022/03/07 12:15:57;;;;;;;6.43;3.30;;;8.70;99.90;;;;;;4972055;28;20039;-72
2022/03/07 12:18:24;;;;;;;4.65;3.08;;;8.70;99.90;;;;;;4977633;28;20058;-73
2022/03/07 12:20:54;;;;;;;4.63;3.00;;;8.90;99.90;;;;;;4988484;28;20042;-72
2022/03/07 12:23:23;;;;;;;5.50;3.20;;;8.90;99.90;;;;;;4969436;28;20066;-73
2022/03/07 12:25:59;;;;;;;4.05;3.00;;;9.00;99.90;;;;;;4959749;28;20293;-72
2022/03/07 12:28:33;;;;;;;7.68;3.53;;;9.20;99.90;;;;;;4969370;28;20057;-73
2022/03/07 12:31:00;;;;;;;5.05;2.97;;;9.50;99.90;;;;;;4981960;28;20046;-73
2022/03/07 12:33:27;;;;;;;7.53;2.78;;;9.50;99.90;;;;;;4963080;28;20058;-77